Time;durP1;ratioP1;P1;durP2;ratioP2;P2;SDS_P1;SDS_P2;PMS_P1;PMS_P2;Temp;Humidity;BMP_temperature;BMP_pressure;BME280_temperature;BME280_humidity;BME280_pressure;Samples;Min_cycle;Max_cycle;Signal;HPM_P1;HPM_P2
2023/07/13 00:02:19;;;;;;;0.00;0.00;;;;;;;13.19;97.85;100312.75;5030080;28;20486;-76
2023/07/13 00:04:44;;;;;;;0.00;0.00;;;;;;;13.15;97.13;100310.84;4983659;28;20029;-76
2023/07/13 00:07:09;;;;;;;0.00;0.00;;;;;;;13.09;97.59;100307.31;5046465;28;20025;-74
2023/07/13 00:09:35;;;;;;;0.00;0.00;;;;;;;13.03;97.79;100306.53;4975641;28;20038;-77
2023/07/13 00:12:01;;;;;;;0.00;0.00;;;;;;;13.01;97.67;100317.00;5022345;28;20477;-78
2023/07/13 00:14:28;;;;;;;0.00;0.00;;;;;;;13.00;97.42;100312.59;5053612;23;20063;-76
2023/07/13 00:16:54;;;;;;;0.00;0.00;;;;;;;12.96;97.56;100305.22;5042397;28;20060;-77
2023/07/13 00:19:20;;;;;;;0.00;0.00;;;;;;;12.95;97.86;100318.13;5031036;28;20143;-77
2023/07/13 00:21:46;;;;;;;0.00;0.00;;;;;;;12.86;97.82;100286.91;5032355;28;20033;-77
2023/07/13 00:24:15;;;;;;;0.00;0.00;;;;;;;13.06;97.61;100318.88;4980930;28;20025;-76
2023/07/13 00:26:44;;;;;;;0.00;0.00;;;;;;;13.18;97.40;100321.25;5023087;28;20024;-76
2023/07/13 00:29:10;;;;;;;0.00;0.00;;;;;;;13.32;96.59;100316.75;5017872;28;20033;-77
2023/07/13 00:31:36;;;;;;;0.00;0.00;;;;;;;13.46;95.97;100318.88;5010937;28;20434;-77
2023/07/13 00:34:02;;;;;;;0.00;0.00;;;;;;;13.57;95.18;100320.44;5031927;28;20025;-76
2023/07/13 00:36:27;;;;;;;0.00;0.00;;;;;;;13.53;94.68;100313.88;5034744;28;20021;-77
2023/07/13 00:38:53;;;;;;;0.00;0.00;;;;;;;13.43;94.56;100312.88;5053314;28;20082;-76
2023/07/13 00:41:19;;;;;;;0.00;0.00;;;;;;;13.31;94.71;100314.31;5016998;28;20057;-77
2023/07/13 00:43:44;;;;;;;0.00;0.00;;;;;;;13.19;94.83;100312.75;5037817;28;20033;-76
2023/07/13 00:46:32;;;;;;;0.00;0.00;;;;;;;13.10;94.94;100320.78;5049390;28;20036;-75
2023/07/13 00:49:06;;;;;;;0.00;0.00;;;;;;;12.99;95.30;100307.41;5046941;28;20025;-75
2023/07/13 00:51:47;;;;;;;0.00;0.00;;;;;;;12.92;95.79;100302.22;5042011;28;20063;-76
2023/07/13 00:54:20;;;;;;;0.00;0.00;;;;;;;12.85;95.68;100308.03;5043655;28;20025;-76
2023/07/13 00:56:48;;;;;;;0.00;0.00;;;;;;;12.76;96.17;100298.75;5049552;28;20028;-75
2023/07/13 00:59:16;;;;;;;0.00;0.00;;;;;;;12.74;96.18;100307.28;5025814;28;20025;-74
2023/07/13 01:01:42;;;;;;;0.00;0.00;;;;;;;12.63;96.68;100300.22;5032109;28;20690;-75
2023/07/13 01:04:08;;;;;;;0.00;0.00;;;;;;;12.58;96.70;100301.03;4984792;28;20041;-76
2023/07/13 01:06:36;;;;;;;0.00;0.00;;;;;;;12.53;97.08;100312.06;5015219;28;20079;-74
2023/07/13 01:09:01;;;;;;;0.00;0.00;;;;;;;12.49;97.04;100304.69;5049118;28;20033;-75
2023/07/13 01:11:27;;;;;;;0.00;0.00;;;;;;;12.45;97.35;100303.59;5013480;28;20028;-75
2023/07/13 01:13:53;;;;;;;0.00;0.00;;;;;;;12.39;97.57;100303.59;5044912;28;20069;-74
2023/07/13 01:16:27;;;;;;;0.00;0.00;;;;;;;12.39;97.58;100306.34;4977375;28;20094;-76
2023/07/13 01:18:53;;;;;;;0.00;0.00;;;;;;;12.35;98.23;100305.28;5026189;28;20669;-75
2023/07/13 01:21:19;;;;;;;0.00;0.00;;;;;;;12.31;98.46;100301.47;4982777;28;20017;-75
2023/07/13 01:23:45;;;;;;;0.00;0.00;;;;;;;12.30;98.57;100307.22;5027187;28;20421;-76
2023/07/13 01:26:11;;;;;;;0.00;0.00;;;;;;;12.28;98.72;100303.94;5024594;28;20026;-73
2023/07/13 01:28:37;;;;;;;0.00;0.00;;;;;;;12.26;98.98;100306.97;5013373;28;20591;-73
2023/07/13 01:31:03;;;;;;;0.00;0.00;;;;;;;12.26;99.15;100306.16;5028665;28;20033;-73
2023/07/13 01:33:29;;;;;;;0.00;0.00;;;;;;;12.19;99.17;100303.69;5012581;28;20120;-74
2023/07/13 01:35:57;;;;;;;0.00;0.00;;;;;;;12.20;99.33;100299.84;4998544;28;20160;-74
2023/07/13 01:38:24;;;;;;;0.00;0.00;;;;;;;12.24;99.49;100317.41;5016821;28;20044;-74
2023/07/13 01:40:50;;;;;;;0.00;0.00;;;;;;;12.27;99.79;100300.38;5017544;28;20030;-74
2023/07/13 01:43:17;;;;;;;0.00;0.00;;;;;;;12.27;99.46;100303.13;5008822;28;20499;-74
2023/07/13 01:45:43;;;;;;;0.00;0.00;;;;;;;12.26;99.60;100300.66;4998948;28;20034;-74
2023/07/13 01:48:09;;;;;;;0.00;0.00;;;;;;;12.27;100.00;100297.63;5001816;28;20447;-74
2023/07/13 01:50:35;;;;;;;0.00;0.00;;;;;;;12.31;99.39;100301.47;5008918;28;20010;-74
2023/07/13 01:53:01;;;;;;;0.00;0.00;;;;;;;12.24;99.45;100298.19;5013203;28;20173;-73
2023/07/13 01:55:28;;;;;;;0.00;0.00;;;;;;;12.26;99.97;100296.00;5019941;28;20095;-74
2023/07/13 01:57:53;;;;;;;0.00;0.00;;;;;;;12.26;100.00;100306.97;5015706;28;20025;-74
2023/07/13 02:00:18;;;;;;;0.00;0.00;;;;;;;12.18;100.00;100307.56;5015039;28;20026;-75
2023/07/13 02:02:44;;;;;;;0.00;0.00;;;;;;;12.21;99.84;100307.00;4989290;28;20046;-74
2023/07/13 02:05:11;;;;;;;0.00;0.00;;;;;;;12.17;99.81;100314.13;5029251;28;20443;-75
2023/07/13 02:07:37;;;;;;;0.00;0.00;;;;;;;12.15;100.00;100311.66;5013054;28;20025;-74
2023/07/13 02:10:02;;;;;;;0.00;0.00;;;;;;;12.05;100.00;100285.09;5022573;28;20044;-74
2023/07/13 02:12:27;;;;;;;0.00;0.00;;;;;;;12.14;100.00;100309.22;5019729;28;20025;-75
2023/07/13 02:14:53;;;;;;;0.00;0.00;;;;;;;12.14;100.00;100287.28;5045599;28;20647;-75
2023/07/13 02:17:18;;;;;;;0.00;0.00;;;;;;;12.18;100.00;100302.88;5029262;28;21127;-74
2023/07/13 02:19:44;;;;;;;0.00;0.00;;;;;;;12.14;100.00;100298.25;5024622;28;20057;-75
2023/07/13 02:22:09;;;;;;;0.00;0.00;;;;;;;12.15;100.00;100294.38;5009372;28;20471;-75
2023/07/13 02:24:35;;;;;;;0.00;0.00;;;;;;;12.10;100.00;100287.00;5026438;28;20510;-74
2023/07/13 02:27:00;;;;;;;0.00;0.00;;;;;;;12.09;100.00;100287.28;5027686;28;20033;-74
2023/07/13 02:29:25;;;;;;;0.00;0.00;;;;;;;12.05;100.00;100296.06;5025288;28;20032;-74
2023/07/13 02:31:51;;;;;;;0.00;0.00;;;;;;;12.01;100.00;100294.97;4992183;28;20538;-74
2023/07/13 02:34:16;;;;;;;0.00;0.00;;;;;;;12.00;100.00;100287.88;5012099;28;20036;-73
2023/07/13 02:36:42;;;;;;;0.00;0.00;;;;;;;11.95;100.00;100289.81;5001442;28;20037;-74
2023/07/13 02:39:08;;;;;;;0.00;0.00;;;;;;;11.91;100.00;100288.69;5042281;28;20107;-75
2023/07/13 02:41:34;;;;;;;0.00;0.00;;;;;;;11.91;100.00;100294.16;5041184;28;20375;-75
2023/07/13 02:44:03;;;;;;;0.00;0.00;;;;;;;11.92;100.00;100295.81;4972638;28;20063;-74
2023/07/13 02:46:36;;;;;;;0.00;0.00;;;;;;;11.88;100.00;100293.63;5015718;28;20033;-75
2023/07/13 02:49:02;;;;;;;0.00;0.00;;;;;;;11.81;100.00;100287.63;5031242;28;20116;-76
2023/07/13 02:55:18;;;;;;;0.00;0.00;;;;;;;11.55;100.00;100267.69;4992204;28;20182;-75
2023/07/13 02:57:51;;;;;;;0.00;0.00;;;;;;;11.69;100.00;100282.41;4973698;28;20116;-74
2023/07/13 03:00:17;;;;;;;0.00;0.00;;;;;;;11.76;100.00;100297.78;5011902;28;20047;-74
2023/07/13 03:02:42;;;;;;;0.00;0.00;;;;;;;11.78;100.00;100299.13;5027540;28;21406;-73
2023/07/13 03:05:12;;;;;;;0.00;0.00;;;;;;;11.87;100.00;100304.84;5020206;28;20098;-74
2023/07/13 03:07:38;;;;;;;0.00;0.00;;;;;;;11.88;100.00;100295.53;5035215;28;20704;-74
2023/07/13 03:10:06;;;;;;;0.00;0.00;;;;;;;11.90;100.00;100293.34;5041128;28;20045;-74
2023/07/13 03:12:31;;;;;;;0.00;0.00;;;;;;;11.99;100.00;100304.59;5038062;28;20474;-74
2023/07/13 03:14:57;;;;;;;0.00;0.00;;;;;;;11.97;100.00;100293.91;5034316;28;20040;-74
2023/07/13 03:17:22;;;;;;;0.00;0.00;;;;;;;11.98;100.00;100298.28;5052908;28;20853;-75
2023/07/13 03:19:49;;;;;;;0.00;0.00;;;;;;;12.14;100.00;100292.75;5033059;28;20033;-75
2023/07/13 03:22:19;;;;;;;0.00;0.00;;;;;;;12.29;100.00;100289.13;5055008;28;20102;-76
2023/07/13 03:24:45;;;;;;;0.00;0.00;;;;;;;12.39;100.00;100289.91;5036700;28;20375;-77
2023/07/13 03:27:17;;;;;;;0.00;0.00;;;;;;;12.42;100.00;100287.72;5044994;28;20667;-78
2023/07/13 03:29:45;;;;;;;0.00;0.00;;;;;;;12.46;100.00;100288.78;5033954;28;20040;-76
2023/07/13 03:32:11;;;;;;;0.00;0.00;;;;;;;12.48;100.00;100292.06;5049605;28;20031;-75
2023/07/13 03:34:37;;;;;;;0.00;0.00;;;;;;;12.47;100.00;100295.91;5056466;28;20032;-76
2023/07/13 03:37:02;;;;;;;0.00;0.00;;;;;;;12.43;100.00;100287.44;5032619;28;20078;-78
2023/07/13 03:39:28;;;;;;;0.00;0.00;;;;;;;12.38;100.00;100293.75;5016835;28;20455;-76
2023/07/13 03:41:54;;;;;;;0.00;0.00;;;;;;;12.22;100.00;100278.44;5030133;28;20074;-76
2023/07/13 03:44:19;;;;;;;0.00;0.00;;;;;;;12.20;100.00;100291.63;5062378;28;20092;-76
2023/07/13 03:46:45;;;;;;;0.00;0.00;;;;;;;12.16;100.00;100294.13;5020248;28;20155;-76
2023/07/13 03:49:11;;;;;;;0.00;0.00;;;;;;;12.05;100.00;100284.28;5046090;28;20112;-76
2023/07/13 03:51:38;;;;;;;0.00;0.00;;;;;;;12.00;100.00;100298.84;5030815;28;20040;-76
2023/07/13 03:54:04;;;;;;;0.00;0.00;;;;;;;11.93;100.00;100301.06;5031345;28;20056;-77
2023/07/13 03:56:32;;;;;;;0.00;0.00;;;;;;;11.88;100.00;100307.34;5051838;28;20052;-76
2023/07/13 03:58:57;;;;;;;0.00;0.00;;;;;;;11.82;100.00;100304.88;5052415;28;20029;-75
2023/07/13 04:01:27;;;;;;;0.00;0.00;;;;;;;11.74;100.00;100297.22;5046289;28;20043;-75
2023/07/13 04:03:53;;;;;;;0.00;0.00;;;;;;;11.66;100.00;100295.84;5047309;28;20024;-74
2023/07/13 04:06:22;;;;;;;0.00;0.00;;;;;;;11.64;100.00;100301.63;5043804;28;20051;-76
2023/07/13 04:08:53;;;;;;;0.00;0.00;;;;;;;11.62;100.00;100295.59;5052731;28;20471;-76
2023/07/13 04:11:20;;;;;;;0.00;0.00;;;;;;;11.63;100.00;100301.91;5043938;28;20023;-75
2023/07/13 04:13:46;;;;;;;0.00;0.00;;;;;;;11.55;100.00;100295.06;5044736;28;20266;-75
2023/07/13 04:16:13;;;;;;;0.00;0.00;;;;;;;11.63;100.00;100305.44;5038469;28;20542;-76
2023/07/13 04:19:16;;;;;;;0.00;0.00;;;;;;;11.65;100.00;100303.28;5072809;23;20086;-74
2023/07/13 04:21:41;;;;;;;0.00;0.00;;;;;;;11.65;100.00;100308.75;5046075;28;20059;-75
2023/07/13 04:24:07;;;;;;;0.00;0.00;;;;;;;11.69;100.00;100307.06;5017746;28;20025;-75
2023/07/13 04:26:35;;;;;;;0.00;0.00;;;;;;;11.79;100.00;100314.47;5027155;28;20025;-76
2023/07/13 04:29:03;;;;;;;0.00;0.00;;;;;;;11.81;100.00;100317.75;5027814;28;20025;-76
2023/07/13 04:31:29;;;;;;;0.00;0.00;;;;;;;11.83;100.00;100317.47;5030975;28;20112;-75
2023/07/13 04:33:55;;;;;;;0.00;0.00;;;;;;;11.89;100.00;100327.31;5016198;28;20111;-72
2023/07/13 04:36:20;;;;;;;0.00;0.00;;;;;;;11.99;100.00;100324.59;5047719;28;20756;-74
2023/07/13 04:38:46;;;;;;;0.00;0.00;;;;;;;12.08;100.00;100327.59;5023826;28;20028;-74
2023/07/13 04:41:14;;;;;;;0.00;0.00;;;;;;;12.17;100.00;100325.91;5049372;28;20032;-74
2023/07/13 04:43:40;;;;;;;0.00;0.00;;;;;;;12.28;100.00;100326.72;5023170;28;20048;-75
2023/07/13 04:46:11;;;;;;;0.00;0.00;;;;;;;12.38;100.00;100325.81;5013952;28;20061;-74
2023/07/13 04:48:38;;;;;;;0.00;0.00;;;;;;;12.51;100.00;100338.13;5032343;28;20022;-75
2023/07/13 04:51:04;;;;;;;0.00;0.00;;;;;;;12.57;100.00;100326.00;5063502;28;20106;-74
2023/07/13 04:53:30;;;;;;;0.00;0.00;;;;;;;12.73;100.00;100333.09;5032225;28;20487;-75
2023/07/13 04:55:56;;;;;;;0.00;0.00;;;;;;;12.80;100.00;100330.00;5031119;28;20029;-75
2023/07/13 04:58:22;;;;;;;0.00;0.00;;;;;;;12.92;100.00;100324.19;5046382;28;20060;-74
2023/07/13 05:00:49;;;;;;;0.00;0.00;;;;;;;13.08;100.00;100339.47;5041534;28;20029;-74
2023/07/13 05:03:14;;;;;;;0.00;0.00;;;;;;;13.22;99.81;100339.63;5040580;28;20447;-74
2023/07/13 05:05:39;;;;;;;0.00;0.00;;;;;;;13.31;99.47;100339.84;5029833;28;20105;-77
2023/07/13 05:08:07;;;;;;;0.00;0.00;;;;;;;13.41;99.13;100345.28;5048630;28;20116;-74
2023/07/13 05:10:33;;;;;;;0.00;0.00;;;;;;;13.51;98.58;100346.31;5012787;28;20020;-75
2023/07/13 05:13:01;;;;;;;0.00;0.00;;;;;;;13.62;98.05;100347.84;5049267;28;20101;-75
2023/07/13 05:15:27;;;;;;;0.00;0.00;;;;;;;13.78;97.68;100346.63;5027959;28;20067;-77
2023/07/13 05:17:52;;;;;;;0.00;0.00;;;;;;;13.82;97.34;100340.53;5034933;28;20025;-76
2023/07/13 05:20:18;;;;;;;0.00;0.00;;;;;;;13.87;96.93;100345.97;4992017;28;20060;-76
2023/07/13 05:22:44;;;;;;;0.00;0.00;;;;;;;13.97;96.39;100343.13;5027655;28;20029;-75
2023/07/13 05:25:10;;;;;;;0.00;0.00;;;;;;;13.97;96.03;100337.63;5030506;28;20071;-76
2023/07/13 05:27:36;;;;;;;0.00;0.00;;;;;;;14.04;95.82;100340.84;5028505;28;20028;-76
2023/07/13 05:30:03;;;;;;;0.00;0.00;;;;;;;14.08;95.57;100333.66;5012207;28;20017;-76
2023/07/13 05:32:28;;;;;;;0.00;0.00;;;;;;;14.19;95.36;100344.53;4987257;28;20041;-75
2023/07/13 05:34:54;;;;;;;0.00;0.00;;;;;;;14.24;95.13;100337.06;5029687;28;20017;-75
2023/07/13 05:37:19;;;;;;;0.00;0.00;;;;;;;14.32;94.61;100335.59;5023218;28;20387;-75
2023/07/13 05:39:45;;;;;;;0.00;0.00;;;;;;;14.44;94.33;100346.16;5042991;28;20057;-74
2023/07/13 05:42:10;;;;;;;0.00;0.00;;;;;;;14.56;93.80;100348.50;5013961;28;20021;-75
2023/07/13 05:44:35;;;;;;;0.00;0.00;;;;;;;14.72;93.55;100352.75;4997134;28;20112;-75
2023/07/13 05:47:01;;;;;;;0.00;0.00;;;;;;;14.77;92.85;100341.66;5049840;28;20036;-75
2023/07/13 05:49:26;;;;;;;0.00;0.00;;;;;;;14.82;92.96;100363.63;5013407;28;20033;-77
2023/07/13 05:51:52;;;;;;;0.00;0.00;;;;;;;14.80;92.45;100368.56;5024006;28;20078;-76
2023/07/13 05:54:18;;;;;;;0.00;0.00;;;;;;;14.75;92.50;100367.84;5018756;28;20051;-76
2023/07/13 05:56:43;;;;;;;0.00;0.00;;;;;;;14.57;92.28;100372.16;5038350;28;20037;-75
2023/07/13 05:59:09;;;;;;;0.00;0.00;;;;;;;14.47;91.74;100365.69;5050565;28;20033;-75
2023/07/13 06:01:34;;;;;;;0.00;0.00;;;;;;;14.45;91.71;100359.63;5019905;28;20361;-76
2023/07/13 06:04:00;;;;;;;0.00;0.00;;;;;;;14.57;91.42;100370.25;5014675;28;20074;-73
2023/07/13 06:06:25;;;;;;;0.00;0.00;;;;;;;14.69;90.71;100367.09;5039410;28;20028;-75
2023/07/13 06:08:51;;;;;;;0.00;0.00;;;;;;;14.81;90.15;100372.97;5008114;28;20115;-76
2023/07/13 06:11:20;;;;;;;0.00;0.00;;;;;;;14.97;90.20;100386.53;5056904;28;20395;-77
2023/07/13 06:13:46;;;;;;;0.00;0.00;;;;;;;15.01;89.80;100379.34;5032185;28;20071;-75
2023/07/13 06:16:12;;;;;;;0.00;0.00;;;;;;;15.21;89.53;100369.94;5032641;28;20048;-73
2023/07/13 06:18:39;;;;;;;0.00;0.00;;;;;;;15.66;88.49;100386.06;5034785;28;20371;-76
2023/07/13 06:21:10;;;;;;;0.00;0.00;;;;;;;16.10;87.08;100393.03;5002952;28;20028;-75
2023/07/13 06:23:36;;;;;;;0.00;0.00;;;;;;;16.34;86.23;100400.31;5041025;28;20055;-75
2023/07/13 06:26:03;;;;;;;0.00;0.00;;;;;;;16.39;85.12;100403.78;5041512;28;20025;-75
2023/07/13 06:28:30;;;;;;;0.00;0.00;;;;;;;16.47;84.93;100413.31;5037907;28;20013;-75
2023/07/13 06:30:55;;;;;;;0.00;0.00;;;;;;;16.41;84.81;100400.72;5034453;28;20036;-75
2023/07/13 06:33:20;;;;;;;0.00;0.00;;;;;;;16.42;85.47;100416.16;5026441;28;20399;-74
2023/07/13 06:35:46;;;;;;;0.00;0.00;;;;;;;16.43;85.00;100417.81;5049461;28;21776;-75
2023/07/13 06:38:11;;;;;;;0.00;0.00;;;;;;;16.44;84.32;100411.16;5020689;28;20032;-76
2023/07/13 06:40:37;;;;;;;0.00;0.00;;;;;;;16.53;84.01;100405.75;5018451;28;20040;-78
2023/07/13 06:43:02;;;;;;;0.00;0.00;;;;;;;16.63;83.95;100413.00;5000589;28;20811;-76
2023/07/13 06:45:28;;;;;;;0.00;0.00;;;;;;;16.73;84.00;100421.06;5030646;28;20036;-77
2023/07/13 06:47:53;;;;;;;0.00;0.00;;;;;;;16.82;83.45;100421.16;5042362;28;20029;-77
2023/07/13 06:50:18;;;;;;;0.00;0.00;;;;;;;16.94;83.28;100424.25;5037623;28;20056;-74
2023/07/13 06:52:52;;;;;;;0.00;0.00;;;;;;;17.12;83.06;100425.25;5016164;28;20033;-79
2023/07/13 06:55:18;;;;;;;0.00;0.00;;;;;;;17.30;82.33;100414.38;5013881;28;20811;-78
2023/07/13 06:57:51;;;;;;;0.00;0.00;;;;;;;17.60;80.60;100435.75;5015643;28;20121;-77
2023/07/13 07:00:19;;;;;;;0.00;0.00;;;;;;;17.60;79.58;100435.75;5030585;28;20043;-78
2023/07/13 07:02:51;;;;;;;0.00;0.00;;;;;;;17.56;79.12;100428.41;5024282;28;20075;-79
2023/07/13 07:05:21;;;;;;;0.00;0.00;;;;;;;17.50;79.10;100424.94;5011477;28;20047;-78
2023/07/13 07:07:50;;;;;;;0.00;0.00;;;;;;;17.48;78.31;100424.44;5019198;28;20033;-77
2023/07/13 07:10:22;;;;;;;0.00;0.00;;;;;;;17.46;78.27;100418.41;5027712;28;20032;-78
2023/07/13 07:12:51;;;;;;;0.00;0.00;;;;;;;17.46;78.34;100434.97;5034434;28;20571;-77
2023/07/13 07:15:20;;;;;;;0.00;0.00;;;;;;;17.45;78.51;100428.66;5029239;28;20052;-77
2023/07/13 07:17:52;;;;;;;0.00;0.00;;;;;;;17.52;79.05;100452.25;5035108;28;20025;-77
2023/07/13 07:20:41;;;;;;;0.00;0.00;;;;;;;17.45;78.97;100442.47;5008496;28;20123;-78
2023/07/13 07:23:14;;;;;;;0.00;0.00;;;;;;;17.60;78.92;100424.69;5036070;28;20530;-79
2023/07/13 07:25:46;;;;;;;0.00;0.00;;;;;;;17.48;78.15;100407.84;5053195;28;20501;-77
2023/07/13 07:28:23;;;;;;;0.00;0.00;;;;;;;17.38;77.48;100416.41;5031333;28;20033;-78
2023/07/13 07:30:53;;;;;;;0.00;0.00;;;;;;;17.56;78.20;100451.31;5033803;28;20367;-77
2023/07/13 07:33:27;;;;;;;0.00;0.00;;;;;;;17.22;78.67;100419.50;5035824;28;20104;-77
2023/07/13 07:35:52;;;;;;;0.00;0.00;;;;;;;17.22;78.84;100438.84;5035064;28;20482;-76
2023/07/13 07:38:20;;;;;;;0.00;0.00;;;;;;;17.29;78.96;100468.81;5035213;28;20273;-78
2023/07/13 07:40:45;;;;;;;0.00;0.00;;;;;;;17.22;79.57;100449.88;5051546;28;20406;-76
2023/07/13 07:43:17;;;;;;;0.00;0.00;;;;;;;17.44;79.53;100465.69;5013525;28;20036;-76
2023/07/13 07:45:49;;;;;;;0.00;0.00;;;;;;;17.52;79.12;100461.41;5023335;28;20036;-77
2023/07/13 07:48:27;;;;;;;0.00;0.00;;;;;;;17.50;78.95;100447.06;5030369;28;20099;-77
2023/07/13 07:51:00;;;;;;;0.00;0.00;;;;;;;17.62;78.71;100472.22;5037132;28;20467;-78
2023/07/13 07:53:55;;;;;;;;;;;;;;;;;;;;;
2023/07/13 07:56:41;;;;;;;0.00;0.00;;;;;;;17.67;77.93;100440.03;5046455;28;20012;-77
2023/07/13 07:59:28;;;;;;;;;;;;;;;;;;;;;
2023/07/13 08:02:04;;;;;;;;;;;;;;;;;;;;;
2023/07/13 08:04:33;;;;;;;0.00;0.00;;;;;;;18.36;75.79;100438.88;5030527;28;20030;-77
2023/07/13 08:07:02;;;;;;;0.00;0.00;;;;;;;18.56;75.52;100443.84;5032148;28;20052;-77
2023/07/13 08:09:28;;;;;;;0.00;0.00;;;;;;;18.86;74.62;100441.38;5008734;28;20075;-77
2023/07/13 08:11:54;;;;;;;0.00;0.00;;;;;;;18.97;73.47;100437.16;5027239;28;20028;-77
2023/07/13 08:14:20;;;;;;;0.00;0.00;;;;;;;19.25;72.85;100453.53;5045400;28;20735;-77
2023/07/13 08:16:59;;;;;;;0.00;0.00;;;;;;;19.28;71.51;100452.06;5056609;28;20021;-76
2023/07/13 08:19:25;;;;;;;0.00;0.00;;;;;;;19.37;71.65;100444.56;5017043;28;20048;-79
2023/07/13 08:21:53;;;;;;;0.00;0.00;;;;;;;19.64;69.95;100448.97;5014371;28;20029;-76
2023/07/13 08:24:18;;;;;;;0.00;0.00;;;;;;;20.11;69.90;100458.59;5000445;28;20514;-77
2023/07/13 08:26:46;;;;;;;0.00;0.00;;;;;;;20.60;66.61;100453.50;5043751;28;20123;-77
2023/07/13 08:29:11;;;;;;;0.00;0.00;;;;;;;20.77;64.34;100471.31;4995569;28;20021;-76
2023/07/13 08:31:44;;;;;;;0.00;0.00;;;;;;;20.48;64.49;100442.31;5048139;28;20017;-77
2023/07/13 08:34:10;;;;;;;0.00;0.00;;;;;;;20.49;65.27;100446.72;5036970;28;20120;-76
2023/07/13 08:36:36;;;;;;;0.00;0.00;;;;;;;20.46;63.97;100439.03;5045438;28;20530;-77
2023/07/13 08:39:06;;;;;;;0.00;0.00;;;;;;;20.63;64.52;100438.94;5028273;28;20087;-78
2023/07/13 08:41:32;;;;;;;0.00;0.00;;;;;;;21.00;63.43;100464.31;5028614;28;20021;-77
2023/07/13 08:44:59;;;;;;;0.00;0.00;;;;;;;21.21;61.57;100480.22;5019528;28;20103;-75
2023/07/13 08:48:08;;;;;;;0.00;0.00;;;;;;;21.61;60.28;100472.28;5019022;28;20411;-79
2023/07/13 08:50:55;;;;;;;0.00;0.00;;;;;;;21.87;59.07;100451.72;5005227;28;20388;-79
2023/07/13 08:53:46;;;;;;;0.00;0.00;;;;;;;22.06;56.80;100454.00;5026024;28;20097;-77
2023/07/13 08:56:22;;;;;;;0.00;0.00;;;;;;;21.51;57.55;100430.13;5056676;28;20037;-79
2023/07/13 08:59:28;;;;;;;;;;;;;;;;;;;;;
2023/07/13 09:02:17;;;;;;;0.00;0.00;;;;;;;21.62;58.22;100473.06;5041678;28;20027;-79
2023/07/13 09:04:49;;;;;;;0.00;0.00;;;;;;;21.60;57.17;100453.13;5038607;28;20060;-78
2023/07/13 09:07:42;;;;;;;0.00;0.00;;;;;;;21.49;57.92;100452.69;5032361;28;20070;-78
2023/07/13 09:10:22;;;;;;;0.00;0.00;;;;;;;21.25;58.47;100458.94;5061954;28;20025;-78
2023/07/13 09:13:13;;;;;;;;;;;;;;;;;;;;;
2023/07/13 09:15:53;;;;;;;0.00;0.00;;;;;;;21.25;59.56;100470.06;5060273;28;20505;-84
2023/07/13 09:18:51;;;;;;;0.00;0.00;;;;;;;21.85;59.07;100476.31;5029387;28;20041;-85
2023/07/13 09:21:27;;;;;;;0.00;0.00;;;;;;;22.11;55.77;100462.16;5034183;28;20021;-83
2023/07/13 09:24:01;;;;;;;0.00;0.00;;;;;;;22.04;54.22;100455.53;5051736;28;20040;-83
2023/07/13 09:26:28;;;;;;;;;;;;;;;22.03;54.20;100474.16;5051142;28;20025;-83
2023/07/13 09:29:02;;;;;;;0.00;0.00;;;;;;;21.97;55.90;100454.09;5033557;28;20317;-80
2023/07/13 09:31:58;;;;;;;0.00;0.00;;;;;;;22.26;54.48;100454.28;5035359;28;20040;-78
2023/07/13 09:34:28;;;;;;;0.00;0.00;;;;;;;22.53;54.24;100450.09;5013599;28;20021;-78
2023/07/13 09:36:54;;;;;;;0.00;0.00;;;;;;;22.93;52.56;100451.38;5039294;28;20044;-78
2023/07/13 09:39:40;;;;;;;;;;;;;;;;;;;;;
2023/07/13 09:42:15;;;;;;;0.00;0.00;;;;;;;22.24;52.58;100449.06;5045490;28;20031;-77
2023/07/13 09:44:47;;;;;;;0.00;0.00;;;;;;;21.81;53.68;100460.66;5032347;28;20035;-78
2023/07/13 09:47:18;;;;;;;0.00;0.00;;;;;;;21.70;54.40;100454.66;5029445;28;20028;-78
2023/07/13 09:49:56;;;;;;;0.00;0.00;;;;;;;21.61;54.64;100455.56;5019945;28;20029;-78
2023/07/13 09:52:21;;;;;;;0.00;0.00;;;;;;;21.84;55.39;100457.19;5024106;28;20021;-77
2023/07/13 09:54:49;;;;;;;0.00;0.00;;;;;;;22.59;53.13;100459.84;5031232;28;20493;-78
2023/07/13 09:57:46;;;;;;;0.00;0.00;;;;;;;23.14;51.25;100457.66;5046129;28;20442;-78
2023/07/13 10:00:25;;;;;;;0.00;0.00;;;;;;;23.20;49.89;100461.00;5038211;28;20053;-79
2023/07/13 10:03:20;;;;;;;0.00;0.00;;;;;;;23.39;51.93;100467.94;5019992;28;20056;-79
2023/07/13 10:05:50;;;;;;;0.00;0.00;;;;;;;24.30;49.40;100472.97;5030868;28;20167;-79
2023/07/13 10:08:35;;;;;;;0.00;0.00;;;;;;;24.14;48.50;100470.13;5011755;28;20457;-78
2023/07/13 10:11:30;;;;;;;0.00;0.00;;;;;;;24.17;48.75;100469.41;5033714;28;20021;-78
2023/07/13 10:13:56;;;;;;;;;;;;;;;24.22;47.48;100474.75;5015350;28;20025;-79
2023/07/13 10:16:28;;;;;;;0.00;0.00;;;;;;;23.77;48.21;100461.09;5035962;28;19908;-78
2023/07/13 10:18:57;;;;;;;0.00;0.00;;;;;;;23.78;48.55;100452.34;5036430;28;20052;-78
2023/07/13 10:21:31;;;;;;;0.00;0.00;;;;;;;24.39;46.47;100456.81;5058260;28;20020;-79
2023/07/13 10:24:22;;;;;;;0.00;0.00;;;;;;;23.92;48.17;100471.53;5034942;28;20020;-78
2023/07/13 10:27:00;;;;;;;0.00;0.00;;;;;;;22.56;51.08;100456.91;5029801;28;20281;-78
2023/07/13 10:29:29;;;;;;;0.00;0.00;;;;;;;21.55;53.76;100478.38;5031820;28;20391;-78
2023/07/13 10:31:57;;;;;;;0.00;0.00;;;;;;;20.58;57.96;100466.94;5036093;28;20040;-78
2023/07/13 10:34:25;;;;;;;0.00;0.00;;;;;;;20.73;59.26;100469.19;5062936;28;20078;-78
2023/07/13 10:37:03;;;;;;;0.00;0.00;;;;;;;21.37;57.18;100467.34;5032242;28;20021;-78
2023/07/13 10:39:32;;;;;;;0.00;0.00;;;;;;;22.80;55.70;100458.91;5032254;28;20025;-78
2023/07/13 10:42:05;;;;;;;0.00;0.00;;;;;;;26.32;46.01;100468.34;5056107;28;20445;-78
2023/07/13 10:44:36;;;;;;;0.00;0.00;;;;;;;26.34;43.90;100469.56;5035310;28;20021;-79
2023/07/13 10:47:13;;;;;;;0.00;0.00;;;;;;;25.48;44.65;100457.47;5055541;28;20084;-79
2023/07/13 10:49:43;;;;;;;0.00;0.00;;;;;;;24.88;45.70;100469.66;5028701;28;20056;-78
2023/07/13 10:52:43;;;;;;;0.00;0.00;;;;;;;26.37;45.02;100482.03;5021430;28;20018;-77
2023/07/13 10:55:45;;;;;;;;;;;;;;;;;;;;;
2023/07/13 10:58:28;;;;;;;0.00;0.00;;;;;;;26.15;40.29;100456.41;5048162;28;20019;-79
2023/07/13 11:01:06;;;;;;;0.00;0.00;;;;;;;25.46;42.03;100487.78;5029076;28;20115;-79
2023/07/13 11:03:36;;;;;;;0.00;0.00;;;;;;;24.92;43.01;100478.94;5040871;28;20403;-77
2023/07/13 11:06:39;;;;;;;0.00;0.00;;;;;;;24.66;44.51;100468.34;5036217;28;20455;-78
2023/07/13 11:09:18;;;;;;;0.00;0.00;;;;;;;24.82;44.02;100482.28;5058409;28;20501;-77
2023/07/13 11:11:44;;;;;;;0.00;0.00;;;;;;;24.82;44.13;100457.13;5030016;28;20021;-76
2023/07/13 11:14:27;;;;;;;0.00;0.00;;;;;;;24.78;44.08;100475.81;5040841;28;20044;-78
2023/07/13 11:16:53;;;;;;;0.00;0.00;;;;;;;24.40;44.61;100471.63;5029019;28;20029;-77
2023/07/13 11:19:18;;;;;;;0.00;0.00;;;;;;;24.17;45.45;100486.19;5022711;28;20098;-78
2023/07/13 11:22:11;;;;;;;0.00;0.00;;;;;;;23.81;45.29;100479.56;5030656;28;20119;-78
2023/07/13 11:25:20;;;;;;;0.00;0.00;;;;;;;23.06;46.39;100452.97;5046637;28;20028;-78
2023/07/13 11:31:05;;;;;;;0.00;0.00;;;;;;;21.62;51.15;100478.63;5044120;28;20038;-77
2023/07/13 11:33:43;;;;;;;0.00;0.00;;;;;;;21.08;54.32;100496.81;5044460;28;20034;-77
2023/07/13 11:36:21;;;;;;;0.00;0.00;;;;;;;20.61;56.41;100471.81;5063061;28;20111;-78
2023/07/13 11:39:28;;;;;;;;;;;;;;;;;;;;;
2023/07/13 12:02:10;;;;;;;;;;;;;;;;;;;;;
2023/07/13 12:08:43;;;;;;;;;;;;;;;;;;;;;
2023/07/13 12:11:57;;;;;;;;;;;;;;;;;;;;;
2023/07/13 12:15:13;;;;;;;;;;;;;;;;;;;;;
2023/07/13 12:18:02;;;;;;;;;;;;;;;;;;;;;
2023/07/13 12:27:22;;;;;;;0.00;0.00;;;;;;;32.79;28.89;100421.09;5040076;28;20056;-78
2023/07/13 12:29:57;;;;;;;0.00;0.00;;;;;;;29.82;32.77;100409.09;5062577;28;20493;-78
2023/07/13 12:47:00;;;;;;;0.00;0.00;;;;;;;21.31;55.62;100452.00;4970328;28;20396;-78
2023/07/13 12:49:34;;;;;;;0.00;0.00;;;;;;;19.78;65.72;100461.84;4954939;28;20037;-77
2023/07/13 12:52:12;;;;;;;;;;;;;;;;;;;;;
2023/07/13 12:54:41;;;;;;;0.00;0.00;;;;;;;17.81;76.97;100443.53;5041832;28;20021;-78